Time;durP1;ratioP1;P1;durP2;ratioP2;P2;SDS_P1;SDS_P2;PMS_P1;PMS_P2;Temp;Humidity;BMP_temperature;BMP_pressure;BME280_temperature;BME280_humidity;BME280_pressure;Samples;Min_cycle;Max_cycle;Signal;HPM_P1;HPM_P2
2023/03/12 00:02:25;;;;;;;;;;;;;;;16.97;24.76;97436.53;5049407;28;19978;-90
2023/03/12 00:04:52;;;;;;;;;;;;;;;17.33;24.04;97440.75;5049490;28;19917;-89
2023/03/12 00:07:18;;;;;;;;;;;;;;;17.61;23.96;97440.63;5053890;28;19928;-90
2023/03/12 00:09:44;;;;;;;;;;;;;;;17.68;23.71;97442.56;5050566;28;19925;-90
2023/03/12 00:12:10;;;;;;;;;;;;;;;18.44;22.70;97443.13;5053181;28;20011;-90
2023/03/12 00:14:37;;;;;;;;;;;;;;;18.39;22.64;97440.78;5048951;28;19978;-90
2023/03/12 00:17:03;;;;;;;;;;;;;;;18.25;22.65;97446.47;5051446;28;19921;-91
2023/03/12 00:19:29;;;;;;;;;;;;;;;18.12;22.74;97456.53;5050329;28;19927;-90
2023/03/12 00:21:55;;;;;;;;;;;;;;;18.33;22.67;97458.31;5052150;28;19990;-90
2023/03/12 00:24:21;;;;;;;;;;;;;;;17.15;23.64;97463.00;5051954;28;19921;-90
2023/03/12 00:26:47;;;;;;;;;;;;;;;17.60;23.18;97464.03;5052162;28;19929;-90
2023/03/12 00:29:13;;;;;;;;;;;;;;;16.82;24.22;97465.53;5053462;28;19978;-90
2023/03/12 00:31:39;;;;;;;;;;;;;;;17.61;23.22;97462.03;5051323;28;19925;-91
2023/03/12 00:34:05;;;;;;;;;;;;;;;17.84;22.26;97454.75;5053448;28;19929;-90
2023/03/12 00:36:31;;;;;;;;;;;;;;;17.63;22.72;97460.44;5052890;28;20412;-90
2023/03/12 00:38:58;;;;;;;;;;;;;;;16.73;24.04;97471.50;5050487;28;20004;-90
2023/03/12 00:41:25;;;;;;;;;;;;;;;17.63;22.76;97471.53;5052440;28;20069;-91
2023/03/12 00:43:51;;;;;;;;;;;;;;;17.48;22.87;97463.69;5049781;28;20015;-90
2023/03/12 00:46:17;;;;;;;;;;;;;;;17.35;23.11;97473.63;5045282;28;19931;-90
2023/03/12 00:48:44;;;;;;;;;;;;;;;17.69;22.48;97469.13;5048800;28;19920;-90
2023/03/12 00:51:10;;;;;;;;;;;;;;;17.95;22.06;97471.31;5051339;28;19927;-90
2023/03/12 00:53:36;;;;;;;;;;;;;;;18.52;21.53;97472.50;5047920;28;20000;-90
2023/03/12 00:56:03;;;;;;;;;;;;;;;18.03;21.90;97472.88;5050472;28;19955;-90
2023/03/12 00:58:29;;;;;;;;;;;;;;;18.27;21.73;97477.44;5052716;28;20376;-90
2023/03/12 01:00:55;;;;;;;;;;;;;;;18.22;21.86;97483.44;5048572;28;19920;-90
2023/03/12 01:03:21;;;;;;;;;;;;;;;18.62;21.20;97481.94;5052117;28;19921;-90
2023/03/12 01:05:52;;;;;;;;;;;;;;;18.69;21.05;97484.66;5055891;28;19921;-90
2023/03/12 01:08:19;;;;;;;;;;;;;;;18.80;21.08;97484.53;5051134;28;20011;-90
2023/03/12 01:10:45;;;;;;;;;;;;;;;18.73;20.96;97482.59;5047501;28;19944;-90
2023/03/12 01:13:11;;;;;;;;;;;;;;;19.33;20.44;97484.72;5051447;28;20335;-90
2023/03/12 01:15:37;;;;;;;;;;;;;;;19.42;20.31;97484.25;5050411;28;19925;-90
2023/03/12 01:18:03;;;;;;;;;;;;;;;19.40;20.53;97493.00;5051150;28;20015;-90
2023/03/12 01:20:29;;;;;;;;;;;;;;;19.61;19.79;97487.16;5049614;28;19958;-90
2023/03/12 01:22:55;;;;;;;;;;;;;;;19.83;19.82;97496.81;5051040;28;19971;-90
2023/03/12 01:25:21;;;;;;;;;;;;;;;20.07;19.49;97480.91;5048115;28;19921;-90
2023/03/12 01:27:48;;;;;;;;;;;;;;;20.29;19.12;97490.56;5049364;28;19981;-90
2023/03/12 01:30:14;;;;;;;;;;;;;;;20.43;19.04;97495.91;5046377;28;19981;-90
2023/03/12 01:32:40;;;;;;;;;;;;;;;20.00;19.17;97492.97;5052013;28;19928;-90
2023/03/12 01:35:06;;;;;;;;;;;;;;;19.49;19.88;97487.72;5052685;28;19924;-91
2023/03/12 01:37:32;;;;;;;;;;;;;;;18.80;20.64;97499.22;5050722;28;19921;-90
2023/03/12 01:39:58;;;;;;;;;;;;;;;19.37;20.23;97488.25;5045522;28;19921;-91
2023/03/12 01:42:24;;;;;;;;;;;;;;;19.38;20.43;97486.28;5049134;28;20434;-91
2023/03/12 01:44:51;;;;;;;;;;;;;;;18.98;20.93;97496.25;5057785;28;20395;-91
2023/03/12 01:47:17;;;;;;;;;;;;;;;17.97;22.08;97496.69;5071343;28;19964;-91
2023/03/12 01:49:44;;;;;;;;;;;;;;;18.20;21.71;97504.50;5056503;28;20461;-91
2023/03/12 01:52:12;;;;;;;;;;;;;;;17.84;22.35;97503.94;5057448;28;20380;-91
2023/03/12 01:54:41;;;;;;;;;;;;;;;18.04;22.27;97501.44;5053574;28;19924;-91
2023/03/12 01:57:10;;;;;;;;;;;;;;;17.11;22.90;97506.63;5055184;28;19921;-91
2023/03/12 01:59:45;;;;;;;;;;;;;;;17.96;22.12;97506.25;5070551;28;19935;-91
2023/03/12 02:02:13;;;;;;;;;;;;;;;17.74;21.99;97505.56;5065251;28;20369;-90
2023/03/12 02:04:39;;;;;;;;;;;;;;;17.06;22.90;97514.59;5060338;28;19923;-91
2023/03/12 02:07:08;;;;;;;;;;;;;;;17.15;23.08;97518.50;5057141;28;20390;-91
2023/03/12 02:09:39;;;;;;;;;;;;;;;17.75;22.30;97520.25;5057210;28;19924;-91
2023/03/12 02:12:06;;;;;;;;;;;;;;;18.12;21.60;97517.63;5049882;28;20280;-91
2023/03/12 02:14:32;;;;;;;;;;;;;;;18.26;21.53;97517.53;5052003;28;19925;-91
2023/03/12 02:16:59;;;;;;;;;;;;;;;17.10;22.77;97532.00;5054381;28;20349;-91
2023/03/12 02:19:37;;;;;;;;;;;;;;;17.61;22.16;97534.22;5054056;28;19986;-90
2023/03/12 02:22:03;;;;;;;;;;;;;;;16.97;23.28;97533.59;5055001;28;19951;-91
2023/03/12 02:24:32;;;;;;;;;;;;;;;16.61;23.43;97537.63;5054693;28;19972;-91
2023/03/12 02:26:58;;;;;;;;;;;;;;;16.73;23.56;97545.53;5055611;28;20472;-92
2023/03/12 02:29:25;;;;;;;;;;;;;;;18.02;22.22;97537.94;5056556;28;20394;-91
2023/03/12 02:31:55;;;;;;;;;;;;;;;18.65;21.10;97547.06;5053918;28;19928;-91
2023/03/12 02:34:21;;;;;;;;;;;;;;;17.97;21.70;97543.91;5050690;28;20392;-91
2023/03/12 02:36:47;;;;;;;;;;;;;;;17.99;21.62;97552.66;5056867;28;20364;-91
2023/03/12 02:39:14;;;;;;;;;;;;;;;18.56;20.93;97547.50;5054904;28;19925;-92
2023/03/12 02:41:41;;;;;;;;;;;;;;;18.33;21.43;97550.84;5054301;28;20380;-91
2023/03/12 02:44:19;;;;;;;;;;;;;;;18.14;21.61;97547.78;5061142;28;19925;-91
2023/03/12 02:46:46;;;;;;;;;;;;;;;17.28;22.74;97552.94;5053455;28;20349;-92
2023/03/12 02:49:12;;;;;;;;;;;;;;;17.64;22.57;97555.63;5051503;28;19974;-93
2023/03/12 02:51:39;;;;;;;;;;;;;;;18.27;21.62;97555.25;5053956;28;19928;-93
2023/03/12 02:54:05;;;;;;;;;;;;;;;17.88;22.09;97560.25;5054979;28;19924;-93
2023/03/12 02:56:31;;;;;;;;;;;;;;;17.73;22.09;97569.84;5055483;28;19917;-93
2023/03/12 02:58:58;;;;;;;;;;;;;;;17.99;21.57;97571.31;5055484;28;19921;-93
2023/03/12 03:01:24;;;;;;;;;;;;;;;18.11;21.77;97571.59;5056064;28;19925;-92
2023/03/12 03:03:50;;;;;;;;;;;;;;;18.75;21.27;97571.16;5054772;28;20031;-92
2023/03/12 03:06:16;;;;;;;;;;;;;;;17.66;22.16;97575.44;5052438;28;20415;-92
2023/03/12 03:08:42;;;;;;;;;;;;;;;17.31;22.79;97576.31;5048877;28;20010;-93
2023/03/12 03:11:09;;;;;;;;;;;;;;;18.06;22.12;97585.16;5054242;28;19921;-92
2023/03/12 03:13:35;;;;;;;;;;;;;;;18.24;21.82;97580.28;5047913;28;20419;-92
2023/03/12 03:16:02;;;;;;;;;;;;;;;17.99;22.41;97585.19;5052265;28;19952;-92
2023/03/12 03:18:29;;;;;;;;;;;;;;;17.34;23.08;97585.81;5052102;28;20019;-92
2023/03/12 03:20:56;;;;;;;;;;;;;;;17.22;23.34;97593.38;5054811;28;19921;-92
2023/03/12 03:23:23;;;;;;;;;;;;;;;16.37;24.12;97595.38;5052992;28;20278;-92
2023/03/12 03:25:49;;;;;;;;;;;;;;;15.95;24.52;97589.75;5053669;28;19921;-93
2023/03/12 03:28:15;;;;;;;;;;;;;;;16.38;24.17;97598.94;5055041;28;19920;-92
2023/03/12 03:30:41;;;;;;;;;;;;;;;15.67;25.01;97603.50;5052277;28;19921;-93
2023/03/12 03:33:07;;;;;;;;;;;;;;;16.09;24.48;97608.38;5067773;28;20378;-93
2023/03/12 03:35:33;;;;;;;;;;;;;;;17.21;23.43;97611.22;5054753;28;20376;-93
2023/03/12 03:37:59;;;;;;;;;;;;;;;17.28;23.00;97610.41;5055246;28;19989;-93
2023/03/12 03:40:25;;;;;;;;;;;;;;;17.85;22.38;97620.16;5052011;28;19964;-94
2023/03/12 03:42:51;;;;;;;;;;;;;;;17.49;22.83;97620.66;5058067;28;20011;-94
2023/03/12 03:45:18;;;;;;;;;;;;;;;17.22;22.97;97618.34;5055146;28;19921;-94
2023/03/12 03:47:44;;;;;;;;;;;;;;;17.18;22.86;97631.41;5053610;28;19975;-93
2023/03/12 03:50:10;;;;;;;;;;;;;;;16.83;23.49;97623.13;5054285;28;19917;-92
2023/03/12 03:52:37;;;;;;;;;;;;;;;17.75;22.57;97629.34;5056152;28;19916;-94
2023/03/12 03:55:03;;;;;;;;;;;;;;;17.83;22.59;97628.09;5053409;28;19925;-93
2023/03/12 03:57:29;;;;;;;;;;;;;;;17.91;22.43;97637.19;5046149;28;20011;-94
2023/03/12 03:59:56;;;;;;;;;;;;;;;17.80;22.44;97633.69;5050559;28;19964;-94
2023/03/12 04:02:22;;;;;;;;;;;;;;;17.39;22.63;97643.66;5065672;28;19921;-93
2023/03/12 04:04:48;;;;;;;;;;;;;;;19.33;21.57;97640.56;5068272;28;19924;-94
2023/03/12 04:07:15;;;;;;;;;;;;;;;19.47;20.83;97643.25;5050815;28;19944;-93
2023/03/12 04:09:41;;;;;;;;;;;;;;;19.38;21.07;97642.94;5053142;28;19921;-93
2023/03/12 04:12:07;;;;;;;;;;;;;;;19.23;20.98;97652.59;5053818;28;19999;-94
2023/03/12 04:14:33;;;;;;;;;;;;;;;18.85;21.19;97651.75;5050818;28;20080;-93
2023/03/12 04:16:59;;;;;;;;;;;;;;;19.50;21.07;97650.78;5050688;28;19982;-94
2023/03/12 04:19:26;;;;;;;;;;;;;;;19.64;20.60;97658.19;5056525;28;20008;-93
2023/03/12 04:21:52;;;;;;;;;;;;;;;19.08;21.48;97656.72;5054067;28;20288;-93
2023/03/12 04:24:19;;;;;;;;;;;;;;;18.91;21.58;97649.31;5052234;28;19931;-93
2023/03/12 04:26:45;;;;;;;;;;;;;;;19.74;20.56;97654.50;5052642;28;19920;-94
2023/03/12 04:29:11;;;;;;;;;;;;;;;19.89;20.46;97651.13;5053879;28;20403;-94
2023/03/12 04:31:37;;;;;;;;;;;;;;;19.81;20.32;97651.66;5053190;28;19920;-94
2023/03/12 04:34:04;;;;;;;;;;;;;;;19.92;19.61;97655.88;5060748;28;19925;-94
2023/03/12 04:36:30;;;;;;;;;;;;;;;20.13;19.61;97642.88;5061686;28;19925;-94
2023/03/12 04:38:56;;;;;;;;;;;;;;;19.80;19.90;97655.63;5060468;28;19929;-94
2023/03/12 04:41:22;;;;;;;;;;;;;;;19.16;20.35;97649.91;5057877;28;19967;-95
2023/03/12 04:43:48;;;;;;;;;;;;;;;18.90;20.90;97658.88;5061642;28;19921;-95
2023/03/12 04:46:14;;;;;;;;;;;;;;;18.86;20.43;97653.31;5056411;28;19921;-94
2023/03/12 04:48:40;;;;;;;;;;;;;;;18.57;20.62;97652.75;5059222;28;19920;-94
2023/03/12 04:51:07;;;;;;;;;;;;;;;19.00;20.48;97652.41;5048687;28;19944;-94
2023/03/12 04:53:33;;;;;;;;;;;;;;;19.75;19.50;97651.31;5059654;28;20402;-94
2023/03/12 04:55:59;;;;;;;;;;;;;;;20.26;18.91;97652.28;5048865;28;19943;-94
2023/03/12 04:58:25;;;;;;;;;;;;;;;20.57;18.64;97657.44;5062177;28;19928;-94
2023/03/12 05:00:52;;;;;;;;;;;;;;;19.66;19.14;97655.78;5067605;28;19921;-94
2023/03/12 05:03:19;;;;;;;;;;;;;;;19.74;19.14;97657.28;5068272;28;19936;-94
2023/03/12 05:05:45;;;;;;;;;;;;;;;19.85;19.21;97667.13;5050553;28;20373;-94
2023/03/12 05:08:11;;;;;;;;;;;;;;;20.07;18.70;97658.50;5054604;28;19921;-94
2023/03/12 05:10:37;;;;;;;;;;;;;;;19.85;18.69;97655.19;5064841;28;19908;-94
2023/03/12 05:13:03;;;;;;;;;;;;;;;19.78;19.12;97658.84;5076619;28;21056;-94
2023/03/12 05:15:29;;;;;;;;;;;;;;;19.87;18.96;97661.91;5072967;28;19916;-94
2023/03/12 05:17:55;;;;;;;;;;;;;;;19.81;18.81;97666.34;5061010;28;19947;-95
2023/03/12 05:20:21;;;;;;;;;;;;;;;20.06;18.49;97668.06;5054415;28;20360;-94
2023/03/12 05:22:47;;;;;;;;;;;;;;;20.27;18.73;97656.66;5052069;28;19939;-94
2023/03/12 05:25:13;;;;;;;;;;;;;;;20.16;18.45;97667.94;5054774;28;19921;-95
2023/03/12 05:27:39;;;;;;;;;;;;;;;20.21;18.71;97673.03;5062736;28;19921;-95
2023/03/12 05:30:06;;;;;;;;;;;;;;;20.12;18.73;97667.16;5059353;28;19925;-95
2023/03/12 05:32:32;;;;;;;;;;;;;;;20.21;18.64;97669.47;5058635;28;20008;-95
2023/03/12 05:34:58;;;;;;;;;;;;;;;20.33;18.67;97671.69;5055174;28;19960;-95
2023/03/12 05:37:24;;;;;;;;;;;;;;;20.55;18.26;97675.78;5059276;28;19920;-95
2023/03/12 05:39:52;;;;;;;;;;;;;;;20.66;18.57;97676.44;5047529;28;19921;-96
2023/03/12 05:42:18;;;;;;;;;;;;;;;20.75;18.30;97671.09;5054822;28;19932;-96
2023/03/12 05:44:44;;;;;;;;;;;;;;;20.50;18.59;97679.84;5057286;28;19970;-96
2023/03/12 05:47:10;;;;;;;;;;;;;;;20.22;19.09;97685.00;5055515;28;19944;-96
2023/03/12 05:49:36;;;;;;;;;;;;;;;20.13;19.09;97685.47;5055668;28;19929;-96
2023/03/12 05:52:02;;;;;;;;;;;;;;;20.38;18.85;97691.56;5050187;28;20376;-96
2023/03/12 05:54:28;;;;;;;;;;;;;;;20.14;18.75;97689.84;5059476;28;20724;-96
2023/03/12 05:56:55;;;;;;;;;;;;;;;19.75;19.25;97697.84;5054488;28;19921;-96
2023/03/12 05:59:21;;;;;;;;;;;;;;;20.06;19.23;97707.06;5053585;28;19963;-96
2023/03/12 06:01:47;;;;;;;;;;;;;;;20.33;19.28;97705.97;5051407;28;19929;-96
2023/03/12 06:04:13;;;;;;;;;;;;;;;19.44;19.45;97710.88;5068927;28;19931;-96
2023/03/12 06:06:39;;;;;;;;;;;;;;;19.24;19.92;97715.41;5047419;28;19924;-96
2023/03/12 06:09:05;;;;;;;;;;;;;;;19.15;20.06;97723.44;5052592;28;19923;-96
2023/03/12 06:11:32;;;;;;;;;;;;;;;19.51;19.93;97716.38;5046225;28;19921;-95
2023/03/12 06:14:00;;;;;;;;;;;;;;;19.94;19.50;97722.31;5048382;28;19963;-96
2023/03/12 06:16:28;;;;;;;;;;;;;;;20.26;19.88;97733.13;5055492;28;20373;-96
2023/03/12 06:18:55;;;;;;;;;;;;;;;19.34;19.26;97734.03;5055048;28;20380;-94
2023/03/12 06:21:23;;;;;;;;;;;;;;;20.41;19.33;97735.34;5051604;28;19928;-96
2023/03/12 06:23:50;;;;;;;;;;;;;;;19.52;20.02;97736.69;5079092;28;19931;-95
2023/03/12 06:26:17;;;;;;;;;;;;;;;20.34;19.67;97740.22;5054114;28;19920;-93
2023/03/12 06:28:44;;;;;;;;;;;;;;;19.67;19.70;97744.50;5052569;28;19921;-93
2023/03/12 06:31:10;;;;;;;;;;;;;;;20.56;19.54;97745.09;5051646;28;19925;-92
2023/03/12 06:33:36;;;;;;;;;;;;;;;20.23;19.26;97742.34;5054785;28;19947;-94
2023/03/12 06:36:04;;;;;;;;;;;;;;;20.53;19.54;97753.53;5076182;28;19955;-94
2023/03/12 06:38:30;;;;;;;;;;;;;;;21.14;19.10;97752.25;5057415;28;20322;-96
2023/03/12 06:40:57;;;;;;;;;;;;;;;21.51;18.97;97756.09;5070337;28;19956;-94
2023/03/12 06:43:24;;;;;;;;;;;;;;;21.21;18.65;97756.97;5052962;28;20274;-95
2023/03/12 06:45:50;;;;;;;;;;;;;;;21.86;17.83;97747.91;5055329;28;20342;-93
2023/03/12 06:48:16;;;;;;;;;;;;;;;21.82;17.98;97754.75;5054734;28;19925;-94
2023/03/12 06:50:43;;;;;;;;;;;;;;;21.23;18.63;97760.13;5056942;28;19927;-95
2023/03/12 06:53:09;;;;;;;;;;;;;;;21.94;18.84;97760.53;5053992;28;19929;-95
2023/03/12 06:55:43;;;;;;;;;;;;;;;20.71;18.62;97759.66;5057063;28;19967;-94
2023/03/12 06:58:09;;;;;;;;;;;;;;;21.68;19.26;97766.19;5056217;28;20379;-95
2023/03/12 07:00:35;;;;;;;;;;;;;;;19.56;20.64;97774.44;5054962;28;20483;-95
2023/03/12 07:03:02;;;;;;;;;;;;;;;20.70;19.96;97765.66;5059258;28;19931;-94
2023/03/12 07:05:28;;;;;;;;;;;;;;;21.46;19.34;97771.31;5059917;28;19924;-91
2023/03/12 07:07:54;;;;;;;;;;;;;;;21.18;19.20;97774.56;5056849;28;19924;-93
2023/03/12 07:10:20;;;;;;;;;;;;;;;21.29;19.59;97766.78;5055669;28;20407;-92
2023/03/12 07:12:46;;;;;;;;;;;;;;;21.33;19.29;97771.13;5057041;28;19924;-91
2023/03/12 07:15:12;;;;;;;;;;;;;;;22.04;18.86;97764.34;5070779;28;19928;-95
2023/03/12 07:17:41;;;;;;;;;;;;;;;22.42;18.48;97762.81;5054843;28;19971;-94
2023/03/12 07:20:08;;;;;;;;;;;;;;;22.19;17.61;97767.66;5054944;28;19912;-93
2023/03/12 07:22:38;;;;;;;;;;;;;;;21.95;18.60;97775.28;5054803;28;19921;-96
2023/03/12 07:25:04;;;;;;;;;;;;;;;22.80;18.67;97770.84;5055918;28;19928;-94
2023/03/12 07:27:30;;;;;;;;;;;;;;;22.26;17.82;97775.91;5074492;28;20404;-95
2023/03/12 07:29:56;;;;;;;;;;;;;;;22.40;17.98;97782.03;5066107;28;20016;-96
2023/03/12 07:32:22;;;;;;;;;;;;;;;21.70;18.62;97774.91;5054788;28;19923;-94
2023/03/12 07:34:48;;;;;;;;;;;;;;;21.64;18.58;97782.19;5053137;28;19928;-96
2023/03/12 07:37:14;;;;;;;;;;;;;;;22.56;18.63;97773.69;5050467;28;19943;-96
2023/03/12 07:39:40;;;;;;;;;;;;;;;21.22;18.85;97778.88;5044032;28;19939;-92
2023/03/12 07:42:06;;;;;;;;;;;;;;;21.41;18.79;97771.00;5053784;28;20295;-91
2023/03/12 07:44:35;;;;;;;;;;;;;;;21.60;19.59;97764.72;5047788;28;19921;-92
2023/03/12 07:47:01;;;;;;;;;;;;;;;21.87;18.52;97769.03;5049806;28;19990;-94
2023/03/12 07:49:27;;;;;;;;;;;;;;;21.97;18.84;97767.25;5051191;28;20311;-94
2023/03/12 07:51:53;;;;;;;;;;;;;;;21.74;17.94;97759.66;5043236;28;20015;-95
2023/03/12 07:54:20;;;;;;;;;;;;;;;22.22;18.30;97769.63;5048211;28;20388;-92
2023/03/12 07:56:46;;;;;;;;;;;;;;;21.70;18.26;97774.91;5051974;28;19978;-93
2023/03/12 07:59:12;;;;;;;;;;;;;;;21.69;17.83;97767.75;5051020;28;19921;-91
2023/03/12 08:01:38;;;;;;;;;;;;;;;21.81;18.54;97767.13;5049884;28;19920;-93
2023/03/12 08:04:04;;;;;;;;;;;;;;;21.39;18.91;97776.22;5052888;28;19921;-93
2023/03/12 08:06:30;;;;;;;;;;;;;;;22.40;18.47;97768.03;5046144;28;19925;-92
2023/03/12 08:08:56;;;;;;;;;;;;;;;22.56;17.98;97770.09;5045540;28;19956;-95
2023/03/12 08:11:22;;;;;;;;;;;;;;;22.99;18.80;97778.38;5057481;28;19921;-92
2023/03/12 08:13:48;;;;;;;;;;;;;;;22.66;18.66;97772.69;5065681;28;19916;-95
2023/03/12 08:16:15;;;;;;;;;;;;;;;23.88;18.41;97780.66;5046738;28;19971;-93
2023/03/12 08:18:41;;;;;;;;;;;;;;;23.69;18.28;97776.75;5050935;28;19930;-92
2023/03/12 08:21:07;;;;;;;;;;;;;;;23.56;17.86;97787.09;5049611;28;19920;-89
2023/03/12 08:23:34;;;;;;;;;;;;;;;23.53;18.10;97784.38;5049618;28;19931;-94
2023/03/12 08:26:00;;;;;;;;;;;;;;;23.79;17.46;97788.91;5051194;28;19921;-91
2023/03/12 08:28:26;;;;;;;;;;;;;;;23.77;17.99;97783.75;5047616;28;19974;-96
2023/03/12 08:30:53;;;;;;;;;;;;;;;23.87;17.10;97787.53;5044670;28;19928;-92
2023/03/12 08:33:20;;;;;;;;;;;;;;;23.08;18.17;97781.41;5047841;28;20415;-90
2023/03/12 08:35:47;;;;;;;;;;;;;;;21.90;18.86;97786.97;5036216;28;19932;-92
2023/03/12 08:38:13;;;;;;;;;;;;;;;22.05;19.30;97777.13;5040445;28;19947;-91
2023/03/12 08:40:39;;;;;;;;;;;;;;;22.77;17.65;97783.69;5039099;28;19948;-94
2023/03/12 08:43:06;;;;;;;;;;;;;;;19.03;20.48;97804.63;5037419;28;20011;-92
2023/03/12 08:45:34;;;;;;;;;;;;;;;20.67;19.59;97787.59;5045137;28;19956;-91
2023/03/12 08:48:03;;;;;;;;;;;;;;;20.41;18.79;97788.31;5042074;28;20346;-91
2023/03/12 08:50:30;;;;;;;;;;;;;;;20.78;19.78;97769.91;5042514;28;20332;-90
2023/03/12 08:52:57;;;;;;;;;;;;;;;19.91;20.13;97779.66;5051253;28;19998;-90
2023/03/12 08:55:24;;;;;;;;;;;;;;;18.53;22.45;97798.50;5051413;28;20371;-91
2023/03/12 08:57:50;;;;;;;;;;;;;;;19.08;20.22;97805.00;5045634;28;19927;-89
2023/03/12 09:00:17;;;;;;;;;;;;;;;18.91;20.37;97805.06;5045333;28;19929;-89
2023/03/12 09:02:43;;;;;;;;;;;;;;;18.75;20.67;97796.44;5062225;28;19936;-93
2023/03/12 09:05:10;;;;;;;;;;;;;;;17.23;21.49;97800.25;5050619;28;20408;-91
2023/03/12 09:07:37;;;;;;;;;;;;;;;18.18;20.99;97802.16;5050616;28;19975;-92
2023/03/12 09:10:03;;;;;;;;;;;;;;;18.26;22.22;97786.28;5052183;28;19927;-91
2023/03/12 09:12:30;;;;;;;;;;;;;;;17.98;21.58;97808.56;5047344;28;19928;-94
2023/03/12 09:14:56;;;;;;;;;;;;;;;17.97;22.38;97802.22;5048433;28;19979;-88
2023/03/12 09:17:22;;;;;;;;;;;;;;;17.23;23.16;97807.78;5045693;28;19924;-89
2023/03/12 09:19:48;;;;;;;;;;;;;;;17.42;23.62;97801.84;5038061;28;19997;-91
2023/03/12 09:22:14;;;;;;;;;;;;;;;17.33;23.33;97803.44;5044816;28;20296;-89
2023/03/12 09:24:40;;;;;;;;;;;;;;;16.06;24.64;97808.50;5049478;28;20291;-89
2023/03/12 09:27:06;;;;;;;;;;;;;;;16.35;24.20;97804.72;5048825;28;20023;-89
2023/03/12 09:29:32;;;;;;;;;;;;;;;15.03;27.29;97810.44;5049809;28;19964;-89
2023/03/12 09:31:58;;;;;;;;;;;;;;;16.61;25.61;97798.13;5048483;28;19916;-89
2023/03/12 09:34:24;;;;;;;;;;;;;;;17.91;23.24;97792.72;5049926;28;19947;-90
2023/03/12 09:36:51;;;;;;;;;;;;;;;17.51;23.32;97793.94;5050421;28;19928;-94
2023/03/12 09:39:17;;;;;;;;;;;;;;;16.84;23.75;97788.31;5040248;28;19925;-89
2023/03/12 09:41:44;;;;;;;;;;;;;;;17.21;24.09;97774.88;5048681;28;20329;-88
2023/03/12 09:44:29;;;;;;;;;;;;;;;16.99;24.59;97789.91;5045349;28;19920;-93
2023/03/12 09:46:57;;;;;;;;;;;;;;;17.97;24.15;97782.78;5043476;28;19929;-89
2023/03/12 09:49:29;;;;;;;;;;;;;;;16.68;22.97;97787.06;5042129;28;20319;-93
2023/03/12 09:51:56;;;;;;;;;;;;;;;16.22;26.55;97765.47;5043419;28;20284;-94
2023/03/12 09:54:46;;;;;;;;;;;;;;;16.87;24.63;97792.28;5049578;28;20012;-96
2023/03/12 09:57:15;;;;;;;;;;;;;;;17.45;22.20;97791.94;5042344;28;20015;-95
2023/03/12 09:59:41;;;;;;;;;;;;;;;16.83;26.62;97795.03;5049403;28;20023;-96
2023/03/12 10:02:25;;;;;;;;;;;;;;;17.65;22.87;97784.81;5043393;28;19924;-96
2023/03/12 10:05:20;;;;;;;;;;;;;;;18.23;24.24;97776.75;5058598;28;19921;-95
2023/03/12 10:07:49;;;;;;;;;;;;;;;19.86;21.92;97788.47;5063159;28;19951;-96
2023/03/12 10:10:27;;;;;;;;;;;;;;;18.08;23.08;97786.34;5056278;28;19920;-96
2023/03/12 10:12:59;;;;;;;;;;;;;;;17.42;25.84;97778.84;5054056;28;19956;-95
2023/03/12 10:15:37;;;;;;;;;;;;;;;20.14;21.15;97792.97;5070431;28;19928;-96
2023/03/12 10:18:12;;;;;;;;;;;;;;;20.24;20.25;97791.28;5070967;28;19931;-96
2023/03/12 10:20:57;;;;;;;;;;;;;;;20.30;20.42;97779.31;5063754;28;19952;-96
2023/03/12 10:23:34;;;;;;;;;;;;;;;19.74;21.67;97791.75;5062290;28;19952;-95
2023/03/12 10:26:13;;;;;;;;;;;;;;;18.78;21.55;97790.06;5050595;28;20023;-92
2023/03/12 10:28:44;;;;;;;;;;;;;;;17.03;25.78;97790.72;5044216;28;19929;-92
2023/03/12 10:31:26;;;;;;;;;;;;;;;18.01;23.46;97791.13;5053048;28;19921;-96
2023/03/12 10:33:59;;;;;;;;;;;;;;;18.68;21.89;97791.69;5061206;28;19916;-96
2023/03/12 10:36:36;;;;;;;;;;;;;;;20.19;21.54;97792.50;5069832;28;19925;-96
2023/03/12 10:39:03;;;;;;;;;;;;;;;18.61;23.78;97780.59;5066933;28;19925;-95
2023/03/12 10:41:30;;;;;;;;;;;;;;;18.94;22.88;97804.28;5058262;28;19920;-94
2023/03/12 10:43:59;;;;;;;;;;;;;;;16.81;22.44;97804.91;5054738;28;19928;-95
2023/03/12 10:46:45;;;;;;;;;;;;;;;15.63;28.86;97804.69;5045532;28;19927;-96
2023/03/12 10:49:22;;;;;;;;;;;;;;;16.05;25.18;97790.34;5050584;28;19921;-95
2023/03/12 10:51:55;;;;;;;;;;;;;;;18.82;23.09;97802.75;5048965;28;19928;-94
2023/03/12 10:54:26;;;;;;;;;;;;;;;19.33;22.10;97793.69;5050426;28;19925;-96
2023/03/12 10:56:52;;;;;;;;;;;;;;;21.16;20.42;97793.75;5048948;28;20012;-96
2023/03/12 10:59:24;;;;;;;;;;;;;;;19.04;24.12;97801.41;5062880;28;19959;-93
2023/03/12 11:01:52;;;;;;;;;;;;;;;19.71;22.26;97789.81;5059058;28;21372;-96
2023/03/12 11:04:21;;;;;;;;;;;;;;;17.80;25.93;97798.31;5054172;28;19943;-95
2023/03/12 11:07:03;;;;;;;;;;;;;;;19.15;22.47;97804.16;5057215;28;20288;-96
2023/03/12 11:09:29;;;;;;;;;;;;;;;19.58;22.43;97791.50;5055378;28;19920;-96
2023/03/12 11:11:55;;;;;;;;;;;;;;;19.84;21.80;97792.88;5045268;28;19917;-96
2023/03/12 11:14:26;;;;;;;;;;;;;;;20.23;24.25;97795.31;5048097;28;19928;-93
2023/03/12 11:16:53;;;;;;;;;;;;;;;17.97;25.26;97802.22;5053871;28;20372;-94
2023/03/12 11:19:32;;;;;;;;;;;;;;;18.78;23.86;97807.56;5060125;28;19928;-97
2023/03/12 11:22:03;;;;;;;;;;;;;;;21.20;22.44;97788.88;5070418;28;19928;-96
2023/03/12 11:24:29;;;;;;;;;;;;;;;22.50;20.27;97785.81;5074020;28;19933;-93
2023/03/12 11:26:58;;;;;;;;;;;;;;;22.49;18.01;97778.66;5074207;28;19925;-96
2023/03/12 11:29:30;;;;;;;;;;;;;;;21.08;20.20;97793.03;5068268;28;19924;-96
2023/03/12 11:32:05;;;;;;;;;;;;;;;20.12;21.69;97795.38;5076628;28;19976;-96
2023/03/12 11:34:33;;;;;;;;;;;;;;;20.87;18.72;97807.25;5073927;28;20020;-96
2023/03/12 11:37:05;;;;;;;;;;;;;;;19.45;21.32;97801.56;5073375;28;20300;-96
2023/03/12 11:39:43;;;;;;;;;;;;;;;21.55;20.09;97796.72;5078595;28;19923;-90
2023/03/12 11:42:09;;;;;;;;;;;;;;;19.16;22.28;97806.50;5061619;28;19929;-96
2023/03/12 11:44:54;;;;;;;;;;;;;;;19.67;20.74;97794.66;5075156;28;19959;-92
2023/03/12 11:47:31;;;;;;;;;;;;;;;20.66;21.46;97791.59;5055937;28;19909;-90
2023/03/12 11:50:18;;;;;;;;;;;;;;;21.34;22.63;97803.44;5072361;28;19995;-96
2023/03/12 11:52:50;;;;;;;;;;;;;;;19.57;22.61;97809.44;5071730;28;20316;-96
2023/03/12 11:55:25;;;;;;;;;;;;;;;19.15;22.74;97806.94;5058204;28;19928;-95
2023/03/12 11:58:20;;;;;;;;;;;;;;;18.83;22.49;97811.91;5053447;28;19917;-96
2023/03/12 12:01:01;;;;;;;;;;;;;;;22.71;20.40;97804.22;5048343;28;19924;-92
2023/03/12 12:03:27;;;;;;;;;;;;;;;21.01;20.50;97809.84;5046340;28;19917;-93
2023/03/12 12:05:53;;;;;;;;;;;;;;;18.41;24.98;97819.16;5047310;28;19921;-90
2023/03/12 12:08:42;;;;;;;;;;;;;;;17.72;28.43;97815.34;5047377;28;19921;-91
2023/03/12 12:11:11;;;;;;;;;;;;;;;18.02;25.74;97823.28;5049131;28;20311;-94
2023/03/12 12:14:06;;;;;;;;;;;;;;;20.20;21.44;97807.25;5055469;28;19928;-90
2023/03/12 12:16:35;;;;;;;;;;;;;;;19.42;22.27;97815.53;5050838;28;20411;-90
2023/03/12 12:19:01;;;;;;;;;;;;;;;18.94;22.61;97816.19;5047783;28;19928;-93
2023/03/12 12:22:00;;;;;;;;;;;;;;;20.54;22.10;97806.09;5040931;28;19917;-91
2023/03/12 12:24:25;;;;;;;;;;;;;;;18.13;26.00;97810.94;5035643;28;19921;-90
2023/03/12 12:26:56;;;;;;;;;;;;;;;18.29;25.55;97813.28;5048046;28;19986;-89
2023/03/12 12:29:22;;;;;;;;;;;;;;;18.69;24.71;97817.53;5043256;28;19925;-89
2023/03/12 12:31:48;;;;;;;;;;;;;;;16.83;28.01;97808.09;5050039;28;19927;-90
2023/03/12 12:34:29;;;;;;;;;;;;;;;16.98;26.77;97806.94;5055603;28;19975;-92
2023/03/12 12:37:18;;;;;;;;;;;;;;;18.35;23.97;97804.13;5062640;28;19933;-92
2023/03/12 12:40:10;;;;;;;;;;;;;;;17.83;26.99;97813.34;5054740;28;20440;-91
2023/03/12 12:42:43;;;;;;;;;;;;;;;18.92;24.78;97790.00;5047824;28;20300;-92
2023/03/12 12:45:12;;;;;;;;;;;;;;;17.32;26.73;97793.53;5048511;28;20003;-89
2023/03/12 12:47:56;;;;;;;;;;;;;;;18.68;24.40;97808.38;5052026;28;19966;-94
2023/03/12 12:50:24;;;;;;;;;;;;;;;18.36;25.00;97807.69;5049658;28;19927;-88
2023/03/12 12:53:07;;;;;;;;;;;;;;;19.88;21.92;97807.59;5052699;28;19928;-94
2023/03/12 12:55:39;;;;;;;;;;;;;;;16.96;24.86;97820.41;5051027;28;19929;-92